Terminal Aerodrome Forecast
Issued by NWS Charleston, WV

Current Version | Previous Version | Graphics & Text | Print | Product List | Glossary On
Versions: 1 2 3 4 5 6 7 8 9 10 11 12 13 14 15 16 17 18 19 20 21 22 23 24 25 26
124
FTUS41 KRLX 202340
TAFBKW
TAF
KBKW 202340Z 2100/2124 18004KT P6SM BKN050
     FM210200 19005KT 6SM -SHRA VCTS OVC040CB
     FM210600 23005KT 4SM -SHRA BKN026
     FM210900 25004KT 4SM -SHRA BKN008
     FM211100 27004KT 4SM -SHRA BKN003
     FM211700 31006KT P6SM -SHRA BKN006
     FM211900 32006KT P6SM -SHRA BKN010=

USA.gov is the U.S. government's official web portal to all federal, state and local government web resources and services.